sensor_id;sensor_type;location;lat;lon;timestamp;temperature;humidity
52030;DHT22;38043;53.224;6.580;2022-07-22T00:01:20;15.90;99.90
52030;DHT22;38043;53.224;6.580;2022-07-22T00:03:46;15.90;99.90
52030;DHT22;38043;53.224;6.580;2022-07-22T00:06:12;15.90;99.90
52030;DHT22;38043;53.224;6.580;2022-07-22T00:08:38;15.90;99.90
52030;DHT22;38043;53.224;6.580;2022-07-22T00:11:07;15.90;99.90
52030;DHT22;38043;53.224;6.580;2022-07-22T00:13:32;15.90;99.90
52030;DHT22;38043;53.224;6.580;2022-07-22T00:15:58;15.90;99.90
52030;DHT22;38043;53.224;6.580;2022-07-22T00:18:24;16.00;99.90
52030;DHT22;38043;53.224;6.580;2022-07-22T00:20:50;15.90;99.90
52030;DHT22;38043;53.224;6.580;2022-07-22T00:23:16;16.00;99.90
52030;DHT22;38043;53.224;6.580;2022-07-22T00:25:45;16.00;99.90
52030;DHT22;38043;53.224;6.580;2022-07-22T00:28:11;16.00;99.90
52030;DHT22;38043;53.224;6.580;2022-07-22T00:30:39;16.00;99.90
52030;DHT22;38043;53.224;6.580;2022-07-22T00:33:05;16.00;99.90
52030;DHT22;38043;53.224;6.580;2022-07-22T00:35:30;16.00;99.90
52030;DHT22;38043;53.224;6.580;2022-07-22T00:37:56;16.00;99.90
52030;DHT22;38043;53.224;6.580;2022-07-22T00:40:22;16.10;99.90
52030;DHT22;38043;53.224;6.580;2022-07-22T00:42:48;16.00;99.90
52030;DHT22;38043;53.224;6.580;2022-07-22T00:45:14;16.10;99.90
52030;DHT22;38043;53.224;6.580;2022-07-22T00:47:40;16.00;99.90
52030;DHT22;38043;53.224;6.580;2022-07-22T00:50:09;16.00;99.90
52030;DHT22;38043;53.224;6.580;2022-07-22T00:52:38;16.00;99.90
52030;DHT22;38043;53.224;6.580;2022-07-22T00:55:05;16.00;99.90
52030;DHT22;38043;53.224;6.580;2022-07-22T00:57:31;16.00;99.90
52030;DHT22;38043;53.224;6.580;2022-07-22T00:59:56;16.00;99.90
52030;DHT22;38043;53.224;6.580;2022-07-22T01:02:22;16.00;99.90
52030;DHT22;38043;53.224;6.580;2022-07-22T01:04:48;16.00;99.90
52030;DHT22;38043;53.224;6.580;2022-07-22T01:07:14;15.90;99.90
52030;DHT22;38043;53.224;6.580;2022-07-22T01:09:46;16.00;99.90
52030;DHT22;38043;53.224;6.580;2022-07-22T01:12:12;16.00;99.90
52030;DHT22;38043;53.224;6.580;2022-07-22T01:14:38;15.90;99.90
52030;DHT22;38043;53.224;6.580;2022-07-22T01:17:04;16.00;99.90
52030;DHT22;38043;53.224;6.580;2022-07-22T01:19:30;15.80;99.90
52030;DHT22;38043;53.224;6.580;2022-07-22T01:21:55;15.90;99.90
52030;DHT22;38043;53.224;6.580;2022-07-22T01:24:21;15.90;99.90
52030;DHT22;38043;53.224;6.580;2022-07-22T01:26:47;16.00;99.90
52030;DHT22;38043;53.224;6.580;2022-07-22T01:29:12;16.00;99.90
52030;DHT22;38043;53.224;6.580;2022-07-22T01:31:38;15.90;99.90
52030;DHT22;38043;53.224;6.580;2022-07-22T01:34:04;15.90;99.90
52030;DHT22;38043;53.224;6.580;2022-07-22T01:36:30;16.00;99.90
52030;DHT22;38043;53.224;6.580;2022-07-22T01:38:56;16.00;99.90
52030;DHT22;38043;53.224;6.580;2022-07-22T01:41:22;16.00;99.90
52030;DHT22;38043;53.224;6.580;2022-07-22T01:43:48;16.00;99.90
52030;DHT22;38043;53.224;6.580;2022-07-22T01:46:14;15.90;99.90
52030;DHT22;38043;53.224;6.580;2022-07-22T01:48:40;15.90;99.90
52030;DHT22;38043;53.224;6.580;2022-07-22T01:51:06;15.90;99.90
52030;DHT22;38043;53.224;6.580;2022-07-22T01:53:37;15.90;99.90
52030;DHT22;38043;53.224;6.580;2022-07-22T01:56:03;15.90;99.90
52030;DHT22;38043;53.224;6.580;2022-07-22T01:58:29;16.00;99.90
52030;DHT22;38043;53.224;6.580;2022-07-22T02:00:55;16.00;99.90
52030;DHT22;38043;53.224;6.580;2022-07-22T02:03:21;16.00;99.90
52030;DHT22;38043;53.224;6.580;2022-07-22T02:05:46;16.00;99.90
52030;DHT22;38043;53.224;6.580;2022-07-22T02:08:12;16.00;99.90
52030;DHT22;38043;53.224;6.580;2022-07-22T02:10:39;16.00;99.90
52030;DHT22;38043;53.224;6.580;2022-07-22T02:13:05;16.00;99.90
52030;DHT22;38043;53.224;6.580;2022-07-22T02:15:31;16.00;99.90
52030;DHT22;38043;53.224;6.580;2022-07-22T02:17:56;16.00;99.90
52030;DHT22;38043;53.224;6.580;2022-07-22T02:20:22;16.10;99.90
52030;DHT22;38043;53.224;6.580;2022-07-22T02:22:48;16.00;99.90
52030;DHT22;38043;53.224;6.580;2022-07-22T02:25:14;15.90;99.90
52030;DHT22;38043;53.224;6.580;2022-07-22T02:27:41;16.00;99.90
52030;DHT22;38043;53.224;6.580;2022-07-22T02:30:07;16.00;99.90
52030;DHT22;38043;53.224;6.580;2022-07-22T02:32:34;16.00;99.90
52030;DHT22;38043;53.224;6.580;2022-07-22T02:35:00;16.00;99.90
52030;DHT22;38043;53.224;6.580;2022-07-22T02:37:27;15.90;99.90
52030;DHT22;38043;53.224;6.580;2022-07-22T02:39:53;16.00;99.90
52030;DHT22;38043;53.224;6.580;2022-07-22T02:42:18;16.00;99.90
52030;DHT22;38043;53.224;6.580;2022-07-22T02:44:47;16.00;99.90
52030;DHT22;38043;53.224;6.580;2022-07-22T02:47:12;15.90;99.90
52030;DHT22;38043;53.224;6.580;2022-07-22T02:49:38;15.90;99.90
52030;DHT22;38043;53.224;6.580;2022-07-22T02:52:04;15.90;99.90
52030;DHT22;38043;53.224;6.580;2022-07-22T02:54:30;15.80;99.90
52030;DHT22;38043;53.224;6.580;2022-07-22T02:56:55;15.90;99.90
52030;DHT22;38043;53.224;6.580;2022-07-22T02:59:21;15.90;99.90
52030;DHT22;38043;53.224;6.580;2022-07-22T03:01:47;15.90;99.90
52030;DHT22;38043;53.224;6.580;2022-07-22T03:04:12;15.80;99.90
52030;DHT22;38043;53.224;6.580;2022-07-22T03:06:41;15.90;99.90
52030;DHT22;38043;53.224;6.580;2022-07-22T03:09:07;15.90;99.90
52030;DHT22;38043;53.224;6.580;2022-07-22T03:11:32;15.90;99.90
52030;DHT22;38043;53.224;6.580;2022-07-22T03:13:58;15.90;99.90
52030;DHT22;38043;53.224;6.580;2022-07-22T03:16:26;15.80;99.90
52030;DHT22;38043;53.224;6.580;2022-07-22T03:18:52;15.90;99.90
52030;DHT22;38043;53.224;6.580;2022-07-22T03:21:18;15.90;99.90
52030;DHT22;38043;53.224;6.580;2022-07-22T03:23:43;15.80;99.90
52030;DHT22;38043;53.224;6.580;2022-07-22T03:26:09;15.80;99.90
52030;DHT22;38043;53.224;6.580;2022-07-22T03:28:35;15.80;99.90
52030;DHT22;38043;53.224;6.580;2022-07-22T03:31:00;16.00;99.90
52030;DHT22;38043;53.224;6.580;2022-07-22T03:33:26;15.90;99.90
52030;DHT22;38043;53.224;6.580;2022-07-22T03:35:55;15.90;99.90
52030;DHT22;38043;53.224;6.580;2022-07-22T03:38:21;15.90;99.90
52030;DHT22;38043;53.224;6.580;2022-07-22T03:40:46;15.80;99.90
52030;DHT22;38043;53.224;6.580;2022-07-22T03:43:12;15.80;99.90
52030;DHT22;38043;53.224;6.580;2022-07-22T03:45:38;15.80;99.90
52030;DHT22;38043;53.224;6.580;2022-07-22T03:48:04;15.80;99.90
52030;DHT22;38043;53.224;6.580;2022-07-22T03:50:29;15.80;99.90
52030;DHT22;38043;53.224;6.580;2022-07-22T03:52:55;15.80;99.90
52030;DHT22;38043;53.224;6.580;2022-07-22T03:55:21;15.80;99.90
52030;DHT22;38043;53.224;6.580;2022-07-22T03:57:47;15.80;99.90
52030;DHT22;38043;53.224;6.580;2022-07-22T04:00:13;15.80;99.90
52030;DHT22;38043;53.224;6.580;2022-07-22T04:02:38;15.80;99.90
52030;DHT22;38043;53.224;6.580;2022-07-22T04:05:07;15.80;99.90
52030;DHT22;38043;53.224;6.580;2022-07-22T04:07:32;15.80;99.90
52030;DHT22;38043;53.224;6.580;2022-07-22T04:09:58;15.90;99.90
52030;DHT22;38043;53.224;6.580;2022-07-22T04:12:34;15.80;99.90
52030;DHT22;38043;53.224;6.580;2022-07-22T04:15:01;15.90;99.90
52030;DHT22;38043;53.224;6.580;2022-07-22T04:17:26;15.70;99.90
52030;DHT22;38043;53.224;6.580;2022-07-22T04:19:55;15.90;99.90
52030;DHT22;38043;53.224;6.580;2022-07-22T04:22:21;15.90;99.90
52030;DHT22;38043;53.224;6.580;2022-07-22T04:24:47;15.80;99.90
52030;DHT22;38043;53.224;6.580;2022-07-22T04:27:12;15.80;99.90
52030;DHT22;38043;53.224;6.580;2022-07-22T04:29:41;15.80;99.90
52030;DHT22;38043;53.224;6.580;2022-07-22T04:32:07;15.90;99.90
52030;DHT22;38043;53.224;6.580;2022-07-22T04:34:32;15.80;99.90
52030;DHT22;38043;53.224;6.580;2022-07-22T04:36:59;15.90;99.90
52030;DHT22;38043;53.224;6.580;2022-07-22T04:39:24;15.90;99.90
52030;DHT22;38043;53.224;6.580;2022-07-22T04:41:50;15.80;99.90
52030;DHT22;38043;53.224;6.580;2022-07-22T04:44:16;15.90;99.90
52030;DHT22;38043;53.224;6.580;2022-07-22T04:46:41;15.90;99.90
52030;DHT22;38043;53.224;6.580;2022-07-22T04:49:07;15.80;99.90
52030;DHT22;38043;53.224;6.580;2022-07-22T04:51:32;15.90;99.90
52030;DHT22;38043;53.224;6.580;2022-07-22T04:54:01;15.90;99.90
52030;DHT22;38043;53.224;6.580;2022-07-22T04:56:27;15.90;99.90
52030;DHT22;38043;53.224;6.580;2022-07-22T04:58:52;15.80;99.90
52030;DHT22;38043;53.224;6.580;2022-07-22T05:01:18;15.80;99.90
52030;DHT22;38043;53.224;6.580;2022-07-22T05:03:44;15.80;99.90
52030;DHT22;38043;53.224;6.580;2022-07-22T05:06:09;15.90;99.90
52030;DHT22;38043;53.224;6.580;2022-07-22T05:08:36;15.80;99.90
52030;DHT22;38043;53.224;6.580;2022-07-22T05:11:07;15.90;99.90
52030;DHT22;38043;53.224;6.580;2022-07-22T05:13:33;15.90;99.90
52030;DHT22;38043;53.224;6.580;2022-07-22T05:16:03;15.90;99.90
52030;DHT22;38043;53.224;6.580;2022-07-22T05:18:29;16.00;99.90
52030;DHT22;38043;53.224;6.580;2022-07-22T05:20:55;15.90;99.90
52030;DHT22;38043;53.224;6.580;2022-07-22T05:23:20;15.90;99.90
52030;DHT22;38043;53.224;6.580;2022-07-22T05:25:46;15.90;99.90
52030;DHT22;38043;53.224;6.580;2022-07-22T05:28:12;15.90;99.90
52030;DHT22;38043;53.224;6.580;2022-07-22T05:30:38;15.90;99.90
52030;DHT22;38043;53.224;6.580;2022-07-22T05:33:04;15.90;99.90
52030;DHT22;38043;53.224;6.580;2022-07-22T05:35:33;16.00;99.90
52030;DHT22;38043;53.224;6.580;2022-07-22T05:38:02;16.00;99.90
52030;DHT22;38043;53.224;6.580;2022-07-22T05:40:27;15.90;99.90
52030;DHT22;38043;53.224;6.580;2022-07-22T05:42:54;15.90;99.90
52030;DHT22;38043;53.224;6.580;2022-07-22T05:45:20;15.90;99.90
52030;DHT22;38043;53.224;6.580;2022-07-22T05:47:45;16.00;99.90
52030;DHT22;38043;53.224;6.580;2022-07-22T05:50:11;16.00;99.90
52030;DHT22;38043;53.224;6.580;2022-07-22T05:52:37;16.00;99.90
52030;DHT22;38043;53.224;6.580;2022-07-22T05:55:08;16.00;99.90
52030;DHT22;38043;53.224;6.580;2022-07-22T05:57:33;16.00;99.90
52030;DHT22;38043;53.224;6.580;2022-07-22T05:59:59;16.10;99.90
52030;DHT22;38043;53.224;6.580;2022-07-22T06:02:25;16.00;99.90
52030;DHT22;38043;53.224;6.580;2022-07-22T06:04:51;16.00;99.90
52030;DHT22;38043;53.224;6.580;2022-07-22T06:07:16;16.00;99.90
52030;DHT22;38043;53.224;6.580;2022-07-22T06:09:44;16.00;99.90
52030;DHT22;38043;53.224;6.580;2022-07-22T06:12:10;16.00;99.90
52030;DHT22;38043;53.224;6.580;2022-07-22T06:14:35;16.10;99.90
52030;DHT22;38043;53.224;6.580;2022-07-22T06:17:04;16.10;99.90
52030;DHT22;38043;53.224;6.580;2022-07-22T06:19:29;16.20;99.90
52030;DHT22;38043;53.224;6.580;2022-07-22T06:21:56;16.10;99.90
52030;DHT22;38043;53.224;6.580;2022-07-22T06:24:24;16.10;99.90
52030;DHT22;38043;53.224;6.580;2022-07-22T06:26:50;16.10;99.90
52030;DHT22;38043;53.224;6.580;2022-07-22T06:29:16;16.30;99.90
52030;DHT22;38043;53.224;6.580;2022-07-22T06:31:42;16.30;99.90
52030;DHT22;38043;53.224;6.580;2022-07-22T06:34:08;16.30;99.90
52030;DHT22;38043;53.224;6.580;2022-07-22T06:36:36;16.30;99.90
52030;DHT22;38043;53.224;6.580;2022-07-22T06:39:02;16.40;99.90
52030;DHT22;38043;53.224;6.580;2022-07-22T06:41:28;16.40;99.90
52030;DHT22;38043;53.224;6.580;2022-07-22T06:43:53;16.50;99.90
52030;DHT22;38043;53.224;6.580;2022-07-22T06:46:19;16.50;99.90
52030;DHT22;38043;53.224;6.580;2022-07-22T06:48:47;16.60;99.90
52030;DHT22;38043;53.224;6.580;2022-07-22T06:51:13;16.70;99.90
52030;DHT22;38043;53.224;6.580;2022-07-22T06:53:38;16.70;99.90
52030;DHT22;38043;53.224;6.580;2022-07-22T06:56:04;16.70;99.90
52030;DHT22;38043;53.224;6.580;2022-07-22T06:58:31;16.70;99.90
52030;DHT22;38043;53.224;6.580;2022-07-22T07:00:56;16.80;99.90
52030;DHT22;38043;53.224;6.580;2022-07-22T07:03:22;16.80;99.90
52030;DHT22;38043;53.224;6.580;2022-07-22T07:05:53;16.80;99.90
52030;DHT22;38043;53.224;6.580;2022-07-22T07:08:19;16.80;99.90
52030;DHT22;38043;53.224;6.580;2022-07-22T07:10:45;16.80;99.90
52030;DHT22;38043;53.224;6.580;2022-07-22T07:13:10;16.90;99.90
52030;DHT22;38043;53.224;6.580;2022-07-22T07:15:39;16.80;99.90
52030;DHT22;38043;53.224;6.580;2022-07-22T07:18:05;17.00;99.90
52030;DHT22;38043;53.224;6.580;2022-07-22T07:20:30;17.00;99.90
52030;DHT22;38043;53.224;6.580;2022-07-22T07:23:00;16.90;99.90
52030;DHT22;38043;53.224;6.580;2022-07-22T07:25:27;17.00;99.90
52030;DHT22;38043;53.224;6.580;2022-07-22T07:27:52;17.10;99.90
52030;DHT22;38043;53.224;6.580;2022-07-22T07:30:18;17.10;99.90
52030;DHT22;38043;53.224;6.580;2022-07-22T07:32:44;17.20;99.90
52030;DHT22;38043;53.224;6.580;2022-07-22T07:35:10;17.20;99.90
52030;DHT22;38043;53.224;6.580;2022-07-22T07:37:35;17.30;99.90
52030;DHT22;38043;53.224;6.580;2022-07-22T07:40:05;17.30;99.90
52030;DHT22;38043;53.224;6.580;2022-07-22T07:42:31;17.30;99.90
52030;DHT22;38043;53.224;6.580;2022-07-22T07:44:57;17.30;99.90
52030;DHT22;38043;53.224;6.580;2022-07-22T07:47:23;17.30;99.90
52030;DHT22;38043;53.224;6.580;2022-07-22T07:49:49;17.30;99.90
52030;DHT22;38043;53.224;6.580;2022-07-22T07:52:15;17.30;99.90
52030;DHT22;38043;53.224;6.580;2022-07-22T07:54:42;17.30;99.90
52030;DHT22;38043;53.224;6.580;2022-07-22T07:57:11;17.30;99.90
52030;DHT22;38043;53.224;6.580;2022-07-22T07:59:38;17.40;99.90
52030;DHT22;38043;53.224;6.580;2022-07-22T08:02:04;17.40;99.90
52030;DHT22;38043;53.224;6.580;2022-07-22T08:04:30;17.50;99.90
52030;DHT22;38043;53.224;6.580;2022-07-22T08:06:56;17.50;99.90
52030;DHT22;38043;53.224;6.580;2022-07-22T08:09:23;17.60;99.90
52030;DHT22;38043;53.224;6.580;2022-07-22T08:11:49;17.60;99.90
52030;DHT22;38043;53.224;6.580;2022-07-22T08:14:14;17.60;99.90
52030;DHT22;38043;53.224;6.580;2022-07-22T08:16:40;17.60;99.90
52030;DHT22;38043;53.224;6.580;2022-07-22T08:19:06;17.60;99.90
52030;DHT22;38043;53.224;6.580;2022-07-22T08:21:35;17.50;99.90
52030;DHT22;38043;53.224;6.580;2022-07-22T08:24:01;17.60;99.90
52030;DHT22;38043;53.224;6.580;2022-07-22T08:26:27;17.70;99.90
52030;DHT22;38043;53.224;6.580;2022-07-22T08:28:53;17.60;99.90
52030;DHT22;38043;53.224;6.580;2022-07-22T08:31:19;17.50;99.90
52030;DHT22;38043;53.224;6.580;2022-07-22T08:33:44;17.50;99.90
52030;DHT22;38043;53.224;6.580;2022-07-22T08:36:10;17.60;99.90
52030;DHT22;38043;53.224;6.580;2022-07-22T08:38:38;17.50;99.90
52030;DHT22;38043;53.224;6.580;2022-07-22T08:41:04;17.50;99.90
52030;DHT22;38043;53.224;6.580;2022-07-22T08:43:31;17.50;99.90
52030;DHT22;38043;53.224;6.580;2022-07-22T08:45:59;17.50;99.90
52030;DHT22;38043;53.224;6.580;2022-07-22T08:48:25;17.50;99.90
52030;DHT22;38043;53.224;6.580;2022-07-22T08:50:51;17.40;99.90
52030;DHT22;38043;53.224;6.580;2022-07-22T08:53:16;17.40;99.90
52030;DHT22;38043;53.224;6.580;2022-07-22T08:55:46;17.50;99.90
52030;DHT22;38043;53.224;6.580;2022-07-22T08:58:13;17.50;99.90
52030;DHT22;38043;53.224;6.580;2022-07-22T09:00:39;17.50;99.90
52030;DHT22;38043;53.224;6.580;2022-07-22T09:03:19;17.50;99.90
52030;DHT22;38043;53.224;6.580;2022-07-22T09:05:47;17.40;99.90
52030;DHT22;38043;53.224;6.580;2022-07-22T09:08:13;17.40;99.90
52030;DHT22;38043;53.224;6.580;2022-07-22T09:10:39;17.50;99.90
52030;DHT22;38043;53.224;6.580;2022-07-22T09:13:07;17.50;99.90
52030;DHT22;38043;53.224;6.580;2022-07-22T09:15:35;17.50;99.90
52030;DHT22;38043;53.224;6.580;2022-07-22T09:18:08;17.50;99.90
52030;DHT22;38043;53.224;6.580;2022-07-22T09:20:35;17.50;99.90
52030;DHT22;38043;53.224;6.580;2022-07-22T09:23:04;17.50;99.90
52030;DHT22;38043;53.224;6.580;2022-07-22T09:25:35;17.50;99.90
52030;DHT22;38043;53.224;6.580;2022-07-22T09:30:35;17.70;99.90
52030;DHT22;38043;53.224;6.580;2022-07-22T09:33:02;17.80;99.90
52030;DHT22;38043;53.224;6.580;2022-07-22T09:35:29;17.80;99.90
52030;DHT22;38043;53.224;6.580;2022-07-22T09:37:58;17.90;99.90
52030;DHT22;38043;53.224;6.580;2022-07-22T09:40:24;17.90;99.90
52030;DHT22;38043;53.224;6.580;2022-07-22T09:42:56;17.90;99.90
52030;DHT22;38043;53.224;6.580;2022-07-22T09:45:25;18.00;99.90
52030;DHT22;38043;53.224;6.580;2022-07-22T09:47:51;18.00;99.90
52030;DHT22;38043;53.224;6.580;2022-07-22T09:52:45;17.80;99.90
52030;DHT22;38043;53.224;6.580;2022-07-22T09:55:13;17.70;99.90
52030;DHT22;38043;53.224;6.580;2022-07-22T09:57:39;17.80;99.90
52030;DHT22;38043;53.224;6.580;2022-07-22T10:00:05;17.80;99.90
52030;DHT22;38043;53.224;6.580;2022-07-22T10:02:40;17.80;99.90
52030;DHT22;38043;53.224;6.580;2022-07-22T10:05:14;17.90;99.90
52030;DHT22;38043;53.224;6.580;2022-07-22T10:07:44;17.40;99.90
52030;DHT22;38043;53.224;6.580;2022-07-22T10:10:13;18.10;99.90
52030;DHT22;38043;53.224;6.580;2022-07-22T10:12:40;18.20;99.90
52030;DHT22;38043;53.224;6.580;2022-07-22T10:15:07;18.30;99.90
52030;DHT22;38043;53.224;6.580;2022-07-22T10:17:37;18.30;99.90
52030;DHT22;38043;53.224;6.580;2022-07-22T10:20:05;18.40;99.90
52030;DHT22;38043;53.224;6.580;2022-07-22T10:25:12;18.50;99.90
52030;DHT22;38043;53.224;6.580;2022-07-22T10:28:01;18.60;99.90
52030;DHT22;38043;53.224;6.580;2022-07-22T10:33:21;18.90;99.90
52030;DHT22;38043;53.224;6.580;2022-07-22T10:36:02;19.00;99.90
52030;DHT22;38043;53.224;6.580;2022-07-22T10:38:29;19.00;99.90
52030;DHT22;38043;53.224;6.580;2022-07-22T10:46:02;18.90;99.90
52030;DHT22;38043;53.224;6.580;2022-07-22T10:51:18;18.80;99.90
52030;DHT22;38043;53.224;6.580;2022-07-22T10:54:00;18.70;99.90
52030;DHT22;38043;53.224;6.580;2022-07-22T10:56:41;18.70;99.90
52030;DHT22;38043;53.224;6.580;2022-07-22T10:59:11;18.60;99.90
52030;DHT22;38043;53.224;6.580;2022-07-22T11:01:39;18.60;99.90
52030;DHT22;38043;53.224;6.580;2022-07-22T11:06:41;18.80;99.90
52030;DHT22;38043;53.224;6.580;2022-07-22T11:09:10;18.80;99.90
52030;DHT22;38043;53.224;6.580;2022-07-22T11:11:41;18.80;99.90
52030;DHT22;38043;53.224;6.580;2022-07-22T11:14:20;18.80;99.90
52030;DHT22;38043;53.224;6.580;2022-07-22T11:16:55;18.80;99.90
52030;DHT22;38043;53.224;6.580;2022-07-22T11:19:29;18.80;99.90
52030;DHT22;38043;53.224;6.580;2022-07-22T11:21:57;18.60;99.90
52030;DHT22;38043;53.224;6.580;2022-07-22T11:24:25;18.50;99.90
52030;DHT22;38043;53.224;6.580;2022-07-22T11:26:53;18.40;99.90
52030;DHT22;38043;53.224;6.580;2022-07-22T11:29:36;18.40;99.90
52030;DHT22;38043;53.224;6.580;2022-07-22T11:32:09;18.40;99.90
52030;DHT22;38043;53.224;6.580;2022-07-22T11:34:41;18.40;99.90
52030;DHT22;38043;53.224;6.580;2022-07-22T11:37:14;18.40;99.90
52030;DHT22;38043;53.224;6.580;2022-07-22T11:39:40;18.40;99.90
52030;DHT22;38043;53.224;6.580;2022-07-22T11:42:06;18.50;99.90
52030;DHT22;38043;53.224;6.580;2022-07-22T11:44:38;18.60;99.90
52030;DHT22;38043;53.224;6.580;2022-07-22T11:47:05;18.80;99.90
52030;DHT22;38043;53.224;6.580;2022-07-22T11:49:34;18.90;99.90
52030;DHT22;38043;53.224;6.580;2022-07-22T11:52:02;18.90;99.90
52030;DHT22;38043;53.224;6.580;2022-07-22T11:54:28;18.90;99.90
52030;DHT22;38043;53.224;6.580;2022-07-22T11:56:54;19.00;99.90
52030;DHT22;38043;53.224;6.580;2022-07-22T11:59:20;19.10;99.90
52030;DHT22;38043;53.224;6.580;2022-07-22T12:01:48;19.10;99.90
52030;DHT22;38043;53.224;6.580;2022-07-22T12:04:23;19.20;99.90
52030;DHT22;38043;53.224;6.580;2022-07-22T12:06:53;19.10;99.90
52030;DHT22;38043;53.224;6.580;2022-07-22T12:09:24;19.20;99.90
52030;DHT22;38043;53.224;6.580;2022-07-22T12:11:53;19.10;99.90
52030;DHT22;38043;53.224;6.580;2022-07-22T12:14:23;19.10;99.90
52030;DHT22;38043;53.224;6.580;2022-07-22T12:19:32;19.40;99.90
52030;DHT22;38043;53.224;6.580;2022-07-22T12:24:34;19.50;99.90
52030;DHT22;38043;53.224;6.580;2022-07-22T12:27:02;19.60;99.90
52030;DHT22;38043;53.224;6.580;2022-07-22T12:34:59;19.80;99.90
52030;DHT22;38043;53.224;6.580;2022-07-22T12:37:27;19.90;99.90
52030;DHT22;38043;53.224;6.580;2022-07-22T12:40:00;19.80;99.90
52030;DHT22;38043;53.224;6.580;2022-07-22T12:42:33;19.80;99.90
52030;DHT22;38043;53.224;6.580;2022-07-22T12:47:48;19.70;99.90
52030;DHT22;38043;53.224;6.580;2022-07-22T12:52:41;19.70;99.90
52030;DHT22;38043;53.224;6.580;2022-07-22T12:55:07;19.50;99.90
52030;DHT22;38043;53.224;6.580;2022-07-22T12:57:33;19.50;99.90
52030;DHT22;38043;53.224;6.580;2022-07-22T12:59:58;19.50;99.90
52030;DHT22;38043;53.224;6.580;2022-07-22T13:02:24;19.50;99.90
52030;DHT22;38043;53.224;6.580;2022-07-22T13:04:50;19.60;99.90
52030;DHT22;38043;53.224;6.580;2022-07-22T13:07:19;19.60;99.90
52030;DHT22;38043;53.224;6.580;2022-07-22T13:09:44;19.70;99.90
52030;DHT22;38043;53.224;6.580;2022-07-22T13:12:10;19.80;99.90
52030;DHT22;38043;53.224;6.580;2022-07-22T13:14:39;19.90;99.90
52030;DHT22;38043;53.224;6.580;2022-07-22T13:17:05;19.90;99.90
52030;DHT22;38043;53.224;6.580;2022-07-22T13:19:30;20.00;99.90
52030;DHT22;38043;53.224;6.580;2022-07-22T13:21:56;20.00;99.90
52030;DHT22;38043;53.224;6.580;2022-07-22T13:24:21;20.00;99.90
52030;DHT22;38043;53.224;6.580;2022-07-22T13:26:47;20.10;99.90
52030;DHT22;38043;53.224;6.580;2022-07-22T13:29:13;20.30;99.90
52030;DHT22;38043;53.224;6.580;2022-07-22T13:31:39;20.30;99.90
52030;DHT22;38043;53.224;6.580;2022-07-22T13:34:04;20.10;99.90
52030;DHT22;38043;53.224;6.580;2022-07-22T13:36:30;20.10;99.90
52030;DHT22;38043;53.224;6.580;2022-07-22T13:38:59;20.00;99.90
52030;DHT22;38043;53.224;6.580;2022-07-22T13:41:26;20.00;99.90
52030;DHT22;38043;53.224;6.580;2022-07-22T13:43:51;20.00;99.90
52030;DHT22;38043;53.224;6.580;2022-07-22T13:46:18;20.10;99.90
52030;DHT22;38043;53.224;6.580;2022-07-22T13:48:44;20.10;99.90
52030;DHT22;38043;53.224;6.580;2022-07-22T13:51:10;20.00;99.90
52030;DHT22;38043;53.224;6.580;2022-07-22T13:53:39;20.00;99.90
52030;DHT22;38043;53.224;6.580;2022-07-22T13:56:07;19.90;99.90
52030;DHT22;38043;53.224;6.580;2022-07-22T13:58:33;19.80;99.90
52030;DHT22;38043;53.224;6.580;2022-07-22T14:00:59;19.80;99.90
52030;DHT22;38043;53.224;6.580;2022-07-22T14:03:26;19.90;99.90
52030;DHT22;38043;53.224;6.580;2022-07-22T14:05:52;20.00;99.90
52030;DHT22;38043;53.224;6.580;2022-07-22T14:08:17;19.90;99.90
52030;DHT22;38043;53.224;6.580;2022-07-22T14:10:43;19.70;99.90
52030;DHT22;38043;53.224;6.580;2022-07-22T14:13:09;19.70;99.90
52030;DHT22;38043;53.224;6.580;2022-07-22T14:15:35;19.80;99.90
52030;DHT22;38043;53.224;6.580;2022-07-22T14:18:00;19.70;99.90
52030;DHT22;38043;53.224;6.580;2022-07-22T14:20:26;19.70;99.90
52030;DHT22;38043;53.224;6.580;2022-07-22T14:22:52;19.60;99.90
52030;DHT22;38043;53.224;6.580;2022-07-22T14:25:18;19.50;99.90
52030;DHT22;38043;53.224;6.580;2022-07-22T14:27:44;19.40;99.90
52030;DHT22;38043;53.224;6.580;2022-07-22T14:30:13;19.30;99.90
52030;DHT22;38043;53.224;6.580;2022-07-22T14:32:38;19.10;99.90
52030;DHT22;38043;53.224;6.580;2022-07-22T14:35:04;19.10;99.90
52030;DHT22;38043;53.224;6.580;2022-07-22T14:37:31;19.20;99.90
52030;DHT22;38043;53.224;6.580;2022-07-22T14:39:57;19.10;99.90
52030;DHT22;38043;53.224;6.580;2022-07-22T14:42:24;19.00;99.90
52030;DHT22;38043;53.224;6.580;2022-07-22T14:44:51;18.90;99.90
52030;DHT22;38043;53.224;6.580;2022-07-22T14:47:16;19.00;99.90
52030;DHT22;38043;53.224;6.580;2022-07-22T14:49:42;18.90;99.90
52030;DHT22;38043;53.224;6.580;2022-07-22T14:52:08;18.80;99.90
52030;DHT22;38043;53.224;6.580;2022-07-22T14:54:34;18.80;99.90
52030;DHT22;38043;53.224;6.580;2022-07-22T14:56:59;18.70;99.90
52030;DHT22;38043;53.224;6.580;2022-07-22T14:59:25;18.80;99.90
52030;DHT22;38043;53.224;6.580;2022-07-22T15:01:54;18.90;99.90
52030;DHT22;38043;53.224;6.580;2022-07-22T15:04:20;18.90;99.90
52030;DHT22;38043;53.224;6.580;2022-07-22T15:06:45;19.00;99.90
52030;DHT22;38043;53.224;6.580;2022-07-22T15:09:11;19.10;99.90
52030;DHT22;38043;53.224;6.580;2022-07-22T15:11:37;19.10;99.90
52030;DHT22;38043;53.224;6.580;2022-07-22T15:14:02;19.00;99.90
52030;DHT22;38043;53.224;6.580;2022-07-22T15:16:28;19.10;99.90
52030;DHT22;38043;53.224;6.580;2022-07-22T15:18:54;19.00;99.90
52030;DHT22;38043;53.224;6.580;2022-07-22T15:21:23;19.00;99.90
52030;DHT22;38043;53.224;6.580;2022-07-22T15:23:48;19.00;99.90
52030;DHT22;38043;53.224;6.580;2022-07-22T15:26:14;19.00;99.90
52030;DHT22;38043;53.224;6.580;2022-07-22T15:28:40;19.00;99.90
52030;DHT22;38043;53.224;6.580;2022-07-22T15:31:06;19.10;99.90
52030;DHT22;38043;53.224;6.580;2022-07-22T15:33:33;19.00;99.90
52030;DHT22;38043;53.224;6.580;2022-07-22T15:35:58;19.00;99.90
52030;DHT22;38043;53.224;6.580;2022-07-22T15:38:24;19.10;99.90
52030;DHT22;38043;53.224;6.580;2022-07-22T15:40:51;19.00;99.90
52030;DHT22;38043;53.224;6.580;2022-07-22T15:43:17;18.90;99.90
52030;DHT22;38043;53.224;6.580;2022-07-22T15:45:42;18.90;99.90
52030;DHT22;38043;53.224;6.580;2022-07-22T15:48:08;18.80;99.90
52030;DHT22;38043;53.224;6.580;2022-07-22T15:50:34;18.80;99.90
52030;DHT22;38043;53.224;6.580;2022-07-22T15:53:03;18.70;99.90
52030;DHT22;38043;53.224;6.580;2022-07-22T15:55:29;18.70;99.90
52030;DHT22;38043;53.224;6.580;2022-07-22T15:57:55;18.60;99.90
52030;DHT22;38043;53.224;6.580;2022-07-22T16:00:46;18.50;99.90
52030;DHT22;38043;53.224;6.580;2022-07-22T16:03:13;18.40;99.90
52030;DHT22;38043;53.224;6.580;2022-07-22T16:05:39;18.40;99.90